Terminal Aerodrome Forecast
Issued by NWS

Home | Current Version | Previous Version | Text Only | Print | Product List | Glossary On
Versions: 1 2 3 4 5 6 7 8 9 10 11 12 13 14 15 16 17 18
000
FTUS42 KTBW 221541 AAA
TAFPIE
TAF AMD
KPIE 221541Z 2216/2312 05005KT P6SM BKN020
     FM221700 03005KT P6SM SCT030 SCT150
     FM222100 35005KT P6SM SCT040 BKN150
     FM230200 06007KT P6SM SCT040 BKN150
     FM230800 10008KT P6SM BKN015=

USA.gov is the U.S. government's official web portal to all federal, state and local government web resources and services.